KMFR

Rogue Valley International - Medford Airport

Medford, Oregon, USA
METAR KMFR 200653Z AUTO 22003KT 10SM BKN055 M02/M06 A3023 RMK AO2 SLP248 T10221056
Observed Flight Rules
Feb-20 @ 06:53 UTC (37 minutes ago) Visual Flight Rules
Wind Visibility Clouds
220° at 3 knots 10 miles
  • Broken at 5,500' AGL
Temperatures Readings
Current -2°C / 28°F
Dewpoint -6°C / 21°F
Humidity 74%
Altimeter 30.23" Hg
Pressure 1024.8 hPa
Elevation 396
METAR KMFR 200653Z AUTO 22003KT 10SM BKN055 M02/M06 A3023 RMK AO2 SLP248 T10221056
Observed Flight Rules
Feb-20 @ 06:53 UTC
(37 minutes ago)
VFR
Wind Visibility
220° at 3 knots 10 miles
Clouds
  • Broken at 5,500' AGL
Temperature Dewpoint
-2°C / 28°F -6°C / 21°F
Humidity Altimeter Pressure
74% 30.23" Hg 1024.8 hPa